KFYV/FYV METAR and TAF weather

Enter ICAO airport designator
Station Type Date Time Source
KFYV METAR 2021/09/28 04:53 UTC NOAA

KFYV 280453Z AUTO 00000KT 10SM CLR 17/14 A2998 RMK AO2 SLP138 T01670139


Station Type Date Time Source
KFYV Decoded METAR 2021/09/28 04:53 UTC NOAA

FAYETTEVILLE DRAKE FIELD, AR, United States (KFYV) 36-00N 94-10W 379M
Sep 28, 2021 - 12:53 AM EDT / 2021.09.28 0453 UTC
Wind: Calm:0
Visibility: 10 mile(s):0
Sky conditions: clear
Temperature: 62.1 F (16.7 C)
Dew Point: 57.0 F (13.9 C)
Relative Humidity: 83%
Pressure (altimeter): 29.98 in. Hg (1015 hPa)
ob: KFYV 280453Z AUTO 00000KT 10SM CLR 17/14 A2998 RMK AO2 SLP138 T01670139
cycle: 5

Station Type Date Time Source
KFYV TAF 2021/09/27 19:06 UTC NOAA

TAF
AMD KFYV 271905Z 2719/2818 17012KT P6SM SKC
FM280000 00000KT P6SM SCT250
FM281500 19008KT P6SM SCT250

Example: see airport list